createdAt,value
2023-03-26T00:00:34.413Z,0.00
2023-03-26T00:01:34.401Z,0.00
2023-03-26T00:02:34.434Z,0.00
2023-03-26T00:03:34.348Z,0.00
2023-03-26T00:04:34.404Z,0.00
2023-03-26T00:05:34.447Z,0.00
2023-03-26T00:06:34.309Z,0.00
2023-03-26T00:07:34.303Z,0.00
2023-03-26T00:08:34.381Z,0.00
2023-03-26T00:09:34.291Z,0.00
2023-03-26T00:10:34.308Z,0.00
2023-03-26T00:11:34.260Z,0.00
2023-03-26T00:12:34.258Z,0.00
2023-03-26T00:13:34.234Z,0.00
2023-03-26T00:14:34.267Z,0.00
2023-03-26T00:15:34.195Z,0.00
2023-03-26T00:16:34.211Z,0.00
2023-03-26T00:17:34.231Z,0.00
2023-03-26T00:18:34.159Z,0.00
2023-03-26T00:19:34.171Z,0.00
2023-03-26T00:20:34.193Z,0.00
2023-03-26T00:21:34.210Z,0.00
2023-03-26T00:22:34.209Z,0.00
2023-03-26T00:23:34.109Z,0.00
2023-03-26T00:24:34.086Z,0.00
2023-03-26T00:25:34.114Z,0.00
2023-03-26T00:26:34.111Z,0.00
2023-03-26T00:27:34.104Z,0.00
2023-03-26T00:28:34.062Z,0.00
2023-03-26T00:29:34.045Z,0.00
2023-03-26T00:30:34.060Z,0.00
2023-03-26T00:31:34.033Z,0.00
2023-03-26T00:32:34.065Z,0.00
2023-03-26T00:33:34.078Z,0.00
2023-03-26T00:34:34.021Z,0.00
2023-03-26T00:35:34.018Z,0.00
2023-03-26T00:36:33.967Z,0.00
2023-03-26T00:37:33.944Z,0.00
2023-03-26T00:38:33.982Z,0.00
2023-03-26T00:39:33.952Z,0.00
2023-03-26T00:40:33.919Z,0.00
2023-03-26T00:41:33.924Z,0.00
2023-03-26T00:42:33.906Z,0.00
2023-03-26T00:43:33.917Z,0.00
2023-03-26T00:44:33.878Z,0.00
2023-03-26T00:45:33.856Z,0.00
2023-03-26T00:46:33.882Z,0.00
2023-03-26T00:47:33.905Z,0.00
2023-03-26T00:48:44.464Z,0.00
2023-03-26T00:49:34.834Z,0.00
2023-03-26T00:50:33.799Z,0.00
2023-03-26T00:51:33.824Z,0.00
2023-03-26T00:52:33.810Z,0.00
2023-03-26T00:53:33.841Z,0.00
2023-03-26T00:54:33.753Z,0.00
2023-03-26T00:55:33.750Z,0.00
2023-03-26T00:56:33.756Z,0.00
2023-03-26T00:57:35.817Z,0.00
2023-03-26T00:58:33.699Z,0.00
2023-03-26T00:59:33.747Z,0.00
2023-03-26T01:00:33.722Z,0.00
2023-03-26T01:01:33.744Z,0.00
2023-03-26T01:02:33.796Z,0.00
2023-03-26T01:03:33.817Z,0.00
2023-03-26T01:04:33.885Z,0.00
2023-03-26T01:05:33.618Z,0.00
2023-03-26T01:06:33.622Z,0.00
2023-03-26T01:07:33.622Z,0.00
2023-03-26T01:08:33.651Z,0.00
2023-03-26T01:09:33.616Z,0.00
2023-03-26T01:10:33.574Z,0.00
2023-03-26T01:11:33.583Z,0.00
2023-03-26T01:12:33.564Z,0.00
2023-03-26T01:13:33.542Z,0.00
2023-03-26T01:14:33.578Z,0.00
2023-03-26T01:15:33.571Z,0.00
2023-03-26T01:16:33.515Z,0.00
2023-03-26T01:17:33.539Z,0.00
2023-03-26T01:18:33.473Z,0.00
2023-03-26T01:19:33.512Z,0.00
2023-03-26T01:20:33.474Z,0.00
2023-03-26T01:21:33.453Z,0.00
2023-03-26T01:22:33.449Z,0.00
2023-03-26T01:23:33.440Z,0.00
2023-03-26T01:24:33.411Z,0.00
2023-03-26T01:25:33.442Z,0.00
2023-03-26T01:26:33.410Z,0.00
2023-03-26T01:27:33.428Z,0.00
2023-03-26T01:28:33.390Z,0.00
2023-03-26T01:29:33.430Z,0.00
2023-03-26T01:30:33.350Z,0.00
2023-03-26T01:31:33.360Z,0.00
2023-03-26T01:32:33.494Z,0.00
2023-03-26T01:33:33.390Z,0.00
2023-03-26T01:34:33.309Z,0.00
2023-03-26T01:35:33.370Z,0.00
2023-03-26T01:36:33.300Z,0.00
2023-03-26T01:37:33.249Z,0.00
2023-03-26T01:38:33.258Z,0.00
2023-03-26T01:39:33.266Z,0.00
2023-03-26T01:40:33.383Z,0.00
2023-03-26T01:41:33.233Z,0.00
2023-03-26T01:42:33.235Z,0.00
2023-03-26T01:43:33.203Z,0.00
2023-03-26T01:44:33.209Z,0.00
2023-03-26T01:45:33.173Z,0.00
2023-03-26T01:46:33.206Z,0.00
2023-03-26T01:47:33.233Z,0.00
2023-03-26T01:48:33.165Z,0.00
2023-03-26T01:49:33.203Z,0.00
2023-03-26T01:50:33.169Z,0.00
2023-03-26T01:51:33.111Z,0.00
2023-03-26T01:52:33.101Z,0.00
2023-03-26T01:53:33.130Z,0.00
2023-03-26T01:54:33.172Z,0.00
2023-03-26T01:55:33.113Z,0.00
2023-03-26T01:56:33.105Z,0.00
2023-03-26T01:57:33.037Z,0.00
2023-03-26T01:58:33.016Z,0.00
2023-03-26T01:59:33.052Z,0.00
2023-03-26T02:00:33.000Z,0.00
2023-03-26T02:01:33.091Z,0.00
2023-03-26T02:02:33.204Z,0.00
2023-03-26T02:03:32.994Z,0.00
2023-03-26T02:04:33.016Z,0.00
2023-03-26T02:05:32.939Z,0.00
2023-03-26T02:06:32.971Z,0.00
2023-03-26T02:07:32.939Z,0.00
2023-03-26T02:08:32.954Z,0.00
2023-03-26T02:09:32.919Z,0.00
2023-03-26T02:10:32.940Z,0.00
2023-03-26T02:11:35.973Z,0.00
2023-03-26T02:12:32.865Z,0.00
2023-03-26T02:13:32.853Z,0.00
2023-03-26T02:14:32.839Z,0.00
2023-03-26T02:15:32.857Z,0.00
2023-03-26T02:16:33.023Z,0.00
2023-03-26T02:17:32.878Z,0.00
2023-03-26T02:18:32.809Z,0.00
2023-03-26T02:19:32.783Z,0.00
2023-03-26T02:20:32.797Z,0.00
2023-03-26T02:21:32.776Z,0.00
2023-03-26T02:22:32.774Z,0.00
2023-03-26T02:23:32.737Z,0.00
2023-03-26T02:24:32.759Z,0.00
2023-03-26T02:25:32.715Z,0.00
2023-03-26T02:26:32.742Z,0.00
2023-03-26T02:27:32.722Z,0.00
2023-03-26T02:28:32.706Z,0.00
2023-03-26T02:29:32.654Z,0.00
2023-03-26T02:30:32.677Z,0.00
2023-03-26T02:31:32.688Z,0.00
2023-03-26T02:32:32.681Z,0.00
2023-03-26T02:33:32.621Z,0.00
2023-03-26T02:34:32.618Z,0.00
2023-03-26T02:35:32.679Z,0.00
2023-03-26T02:36:32.732Z,0.00
2023-03-26T02:37:32.598Z,0.00
2023-03-26T02:38:32.548Z,0.00
2023-03-26T02:39:32.556Z,0.00
2023-03-26T02:40:32.546Z,0.00
2023-03-26T02:41:32.549Z,0.00
2023-03-26T02:42:32.568Z,0.00
2023-03-26T02:43:32.525Z,0.00
2023-03-26T02:44:32.539Z,0.00
2023-03-26T02:45:32.565Z,0.00
2023-03-26T02:46:32.550Z,0.00
2023-03-26T02:47:32.575Z,0.00
2023-03-26T02:48:32.489Z,0.00
2023-03-26T02:49:32.444Z,0.00
2023-03-26T02:50:32.422Z,0.00
2023-03-26T02:51:32.433Z,0.00
2023-03-26T02:52:32.437Z,0.00
2023-03-26T02:53:32.426Z,0.00
2023-03-26T02:54:32.401Z,0.00
2023-03-26T02:55:32.381Z,0.00
2023-03-26T02:56:32.450Z,0.00
2023-03-26T02:57:32.349Z,0.00
2023-03-26T02:58:32.344Z,0.00
2023-03-26T02:59:32.468Z,0.00
2023-03-26T03:00:32.318Z,0.00
2023-03-26T03:01:32.377Z,0.00
2023-03-26T03:02:32.317Z,0.00
2023-03-26T03:03:32.320Z,0.00
2023-03-26T03:04:32.284Z,0.00
2023-03-26T03:05:32.286Z,0.00
2023-03-26T03:06:32.232Z,0.00
2023-03-26T03:07:32.286Z,0.00
2023-03-26T03:08:32.243Z,0.00
2023-03-26T03:09:32.223Z,0.00
2023-03-26T03:10:32.201Z,0.00
2023-03-26T03:11:32.192Z,0.00
2023-03-26T03:12:32.184Z,0.00
2023-03-26T03:13:32.186Z,0.00
2023-03-26T03:14:32.189Z,0.00
2023-03-26T03:15:32.146Z,0.00
2023-03-26T03:16:32.270Z,0.00
2023-03-26T03:17:32.126Z,0.00
2023-03-26T03:18:32.146Z,0.00
2023-03-26T03:19:32.111Z,0.00
2023-03-26T03:20:32.137Z,0.00
2023-03-26T03:21:32.086Z,0.00
2023-03-26T03:22:32.051Z,0.00
2023-03-26T03:23:32.094Z,0.00
2023-03-26T03:24:32.072Z,0.00
2023-03-26T03:25:32.062Z,0.00
2023-03-26T03:26:32.027Z,0.00
2023-03-26T03:27:32.017Z,0.00
2023-03-26T03:28:32.020Z,0.00
2023-03-26T03:29:32.031Z,0.00
2023-03-26T03:30:32.009Z,0.00
2023-03-26T03:31:32.046Z,0.00
2023-03-26T03:32:31.975Z,0.00
2023-03-26T03:33:31.944Z,0.00
2023-03-26T03:34:31.940Z,0.00
2023-03-26T03:35:32.016Z,0.00
2023-03-26T03:36:31.909Z,0.00
2023-03-26T03:37:31.954Z,0.00
2023-03-26T03:38:31.900Z,0.00
2023-03-26T03:39:31.883Z,0.00
2023-03-26T03:40:31.870Z,0.00
2023-03-26T03:41:31.857Z,0.00
2023-03-26T03:42:31.850Z,0.00
2023-03-26T03:43:31.856Z,0.00
2023-03-26T03:44:31.847Z,0.00
2023-03-26T03:45:31.793Z,0.00
2023-03-26T03:46:31.830Z,0.00
2023-03-26T03:47:31.842Z,0.00
2023-03-26T03:48:31.798Z,0.00
2023-03-26T03:49:31.786Z,0.00
2023-03-26T03:50:33.707Z,0.00
2023-03-26T03:51:31.719Z,0.00
2023-03-26T03:52:31.733Z,0.00
2023-03-26T03:53:31.754Z,0.00
2023-03-26T03:54:31.712Z,0.00
2023-03-26T03:55:31.789Z,0.00
2023-03-26T03:56:31.696Z,0.00
2023-03-26T03:57:31.686Z,0.00
2023-03-26T03:58:31.651Z,0.00
2023-03-26T03:59:31.695Z,0.00
2023-03-26T04:00:31.638Z,0.00
2023-03-26T04:01:31.625Z,0.00
2023-03-26T04:02:31.779Z,0.00
2023-03-26T04:03:34.049Z,0.00
2023-03-26T04:04:31.607Z,0.00
2023-03-26T04:05:31.617Z,0.00
2023-03-26T04:06:31.558Z,0.00
2023-03-26T04:07:31.592Z,0.00
2023-03-26T04:08:31.568Z,0.00
2023-03-26T04:09:31.580Z,0.00
2023-03-26T04:10:31.518Z,0.00
2023-03-26T04:11:31.490Z,0.00
2023-03-26T04:12:31.488Z,0.00
2023-03-26T04:13:31.533Z,0.00
2023-03-26T04:14:31.485Z,0.00
2023-03-26T04:15:31.509Z,0.00
2023-03-26T04:16:31.466Z,0.00
2023-03-26T04:17:31.528Z,0.00
2023-03-26T04:18:31.412Z,0.00
2023-03-26T04:19:31.432Z,0.00
2023-03-26T04:20:31.422Z,0.00
2023-03-26T04:21:31.403Z,0.00
2023-03-26T04:22:31.420Z,0.00
2023-03-26T04:23:31.389Z,0.00
2023-03-26T04:24:31.366Z,0.00
2023-03-26T04:25:31.359Z,0.00
2023-03-26T04:26:31.323Z,0.00
2023-03-26T04:27:31.359Z,0.00
2023-03-26T04:28:31.333Z,0.00
2023-03-26T04:29:31.305Z,0.00
2023-03-26T04:30:31.293Z,0.00
2023-03-26T04:31:31.349Z,0.00
2023-03-26T04:32:31.296Z,0.00
2023-03-26T04:33:31.279Z,0.00
2023-03-26T04:34:31.231Z,0.00
2023-03-26T04:35:31.247Z,4.00
2023-03-26T04:36:31.233Z,0.00
2023-03-26T04:37:31.219Z,4.00
2023-03-26T04:38:31.192Z,0.00
2023-03-26T04:39:31.222Z,4.00
2023-03-26T04:40:31.208Z,4.00
2023-03-26T04:41:31.162Z,4.00
2023-03-26T04:42:31.178Z,4.00
2023-03-26T04:43:31.249Z,8.00
2023-03-26T04:44:31.159Z,8.00
2023-03-26T04:45:31.155Z,8.00
2023-03-26T04:46:31.106Z,12.00
2023-03-26T04:47:31.131Z,12.00
2023-03-26T04:48:31.071Z,12.00
2023-03-26T04:49:31.061Z,16.00
2023-03-26T04:50:31.113Z,16.00
2023-03-26T04:51:31.103Z,16.00
2023-03-26T04:52:31.040Z,20.00
2023-03-26T04:53:31.035Z,24.00
2023-03-26T04:54:31.076Z,28.00
2023-03-26T04:55:31.017Z,32.00
2023-03-26T04:56:31.055Z,36.00
2023-03-26T04:57:30.983Z,44.00
2023-03-26T04:58:30.981Z,48.00
2023-03-26T04:59:30.977Z,48.00
2023-03-26T05:00:30.982Z,48.00
2023-03-26T05:01:31.081Z,52.00
2023-03-26T05:02:30.953Z,60.00
2023-03-26T05:03:30.904Z,72.00
2023-03-26T05:04:31.000Z,76.00
2023-03-26T05:05:30.891Z,80.00
2023-03-26T05:06:30.920Z,80.00
2023-03-26T05:07:31.090Z,96.00
2023-03-26T05:08:30.839Z,108.00
2023-03-26T05:09:30.868Z,88.00
2023-03-26T05:10:30.841Z,108.00
2023-03-26T05:11:30.846Z,124.00
2023-03-26T05:12:30.831Z,136.00
2023-03-26T05:13:30.830Z,120.00
2023-03-26T05:14:30.843Z,156.00
2023-03-26T05:15:30.793Z,172.00
2023-03-26T05:16:30.779Z,148.00
2023-03-26T05:17:30.848Z,132.00
2023-03-26T05:18:30.863Z,156.00
2023-03-26T05:19:30.713Z,212.00
2023-03-26T05:20:30.740Z,220.00
2023-03-26T05:21:30.734Z,192.00
2023-03-26T05:22:30.694Z,192.00
2023-03-26T05:23:30.689Z,224.00
2023-03-26T05:24:30.663Z,292.00
2023-03-26T05:25:30.706Z,292.00
2023-03-26T05:26:30.679Z,284.00
2023-03-26T05:27:30.652Z,344.00
2023-03-26T05:28:30.621Z,412.00
2023-03-26T05:29:30.626Z,432.00
2023-03-26T05:30:30.618Z,448.00
2023-03-26T05:31:30.623Z,464.00
2023-03-26T05:32:30.631Z,508.00
2023-03-26T05:33:30.742Z,608.00
2023-03-26T05:34:30.557Z,724.00
2023-03-26T05:35:30.600Z,756.00
2023-03-26T05:36:30.585Z,580.00
2023-03-26T05:37:30.527Z,492.00
2023-03-26T05:38:30.526Z,540.00
2023-03-26T05:39:30.493Z,604.00
2023-03-26T05:40:30.666Z,712.00
2023-03-26T05:41:30.480Z,704.00
2023-03-26T05:42:30.507Z,692.00
2023-03-26T05:43:30.466Z,720.00
2023-03-26T05:44:30.466Z,732.00
2023-03-26T05:45:30.443Z,804.00
2023-03-26T05:46:30.516Z,828.00
2023-03-26T05:47:30.520Z,840.00
2023-03-26T05:48:30.402Z,968.00
2023-03-26T05:49:30.406Z,1100.00
2023-03-26T05:50:30.398Z,1308.00
2023-03-26T05:51:30.413Z,1384.00
2023-03-26T05:52:30.377Z,1244.00
2023-03-26T05:53:30.334Z,1136.00
2023-03-26T05:54:30.323Z,1112.00
2023-03-26T05:55:30.329Z,1228.00
2023-03-26T05:56:30.366Z,1392.00
2023-03-26T05:57:30.361Z,1568.00
2023-03-26T05:58:30.321Z,1708.00
2023-03-26T05:59:30.329Z,1564.00
2023-03-26T06:00:30.265Z,1596.00
2023-03-26T06:01:30.286Z,1636.00
2023-03-26T06:02:30.311Z,1624.00
2023-03-26T06:03:30.348Z,1892.00
2023-03-26T06:04:30.302Z,2100.00
2023-03-26T06:05:30.212Z,2488.00
2023-03-26T06:06:32.294Z,2584.00
2023-03-26T06:07:30.211Z,2600.00
2023-03-26T06:08:30.228Z,2736.00
2023-03-26T06:09:30.165Z,2480.00
2023-03-26T06:10:30.136Z,2688.00
2023-03-26T06:11:30.158Z,2760.00
2023-03-26T06:12:30.117Z,2492.00
2023-03-26T06:13:30.175Z,2404.00
2023-03-26T06:14:30.125Z,2600.00
2023-03-26T06:15:30.114Z,2708.00
2023-03-26T06:16:30.093Z,2820.00
2023-03-26T06:17:30.174Z,3020.00
2023-03-26T06:18:30.104Z,3008.00
2023-03-26T06:19:30.093Z,2900.00
2023-03-26T06:20:30.045Z,2780.00
2023-03-26T06:21:30.014Z,2992.00
2023-03-26T06:22:30.012Z,3224.00
2023-03-26T06:23:30.006Z,3528.00
2023-03-26T06:24:30.026Z,3888.00
2023-03-26T06:25:29.996Z,4124.00
2023-03-26T06:26:29.951Z,4184.00
2023-03-26T06:27:29.950Z,4324.00
2023-03-26T06:28:30.013Z,4628.00
2023-03-26T06:29:29.948Z,4532.00
2023-03-26T06:30:30.032Z,4396.00
2023-03-26T06:31:29.992Z,4484.00
2023-03-26T06:32:29.946Z,4332.00
2023-03-26T06:33:29.890Z,4244.00
2023-03-26T06:34:29.898Z,4444.00
2023-03-26T06:35:29.960Z,4548.00
2023-03-26T06:36:29.872Z,4420.00
2023-03-26T06:37:29.866Z,4584.00
2023-03-26T06:38:29.829Z,4620.00
2023-03-26T06:39:29.859Z,4528.00
2023-03-26T06:40:29.805Z,4624.00
2023-03-26T06:41:29.810Z,4556.00
2023-03-26T06:43:06.405Z,4580.00
2023-03-26T06:43:30.769Z,4908.00
2023-03-26T06:44:29.766Z,5216.00
2023-03-26T06:45:29.762Z,5120.00
2023-03-26T06:46:29.796Z,4952.00
2023-03-26T06:47:29.792Z,4836.00
2023-03-26T06:48:29.732Z,4872.00
2023-03-26T06:49:29.712Z,5040.00
2023-03-26T06:50:29.694Z,5060.00
2023-03-26T06:51:29.709Z,4992.00
2023-03-26T06:52:29.722Z,4652.00
2023-03-26T06:53:29.685Z,4556.00
2023-03-26T06:54:29.766Z,5000.00
2023-03-26T06:55:29.638Z,5600.00
2023-03-26T06:56:29.661Z,5688.00
2023-03-26T06:57:29.659Z,6340.00
2023-03-26T06:58:29.857Z,6828.00
2023-03-26T06:59:29.579Z,6948.00
2023-03-26T07:00:29.587Z,7100.00
2023-03-26T07:01:29.632Z,6988.00
2023-03-26T07:02:29.619Z,7152.00
2023-03-26T07:03:29.585Z,7320.00
2023-03-26T07:04:29.609Z,7268.00
2023-03-26T07:05:29.644Z,7640.00
2023-03-26T07:06:29.575Z,7876.00
2023-03-26T07:07:29.528Z,7940.00
2023-03-26T07:08:29.491Z,8800.00
2023-03-26T07:09:29.519Z,9524.00
2023-03-26T07:10:29.502Z,10124.00
2023-03-26T07:11:29.530Z,10412.00
2023-03-26T07:12:29.451Z,10348.00
2023-03-26T07:13:29.449Z,9924.00
2023-03-26T07:14:29.408Z,9580.00
2023-03-26T07:15:29.468Z,9876.00
2023-03-26T07:16:29.416Z,10520.00
2023-03-26T07:17:29.423Z,10600.00
2023-03-26T07:18:29.380Z,10624.00
2023-03-26T07:19:29.390Z,10752.00
2023-03-26T07:20:29.415Z,12420.00
2023-03-26T07:21:29.369Z,12420.00
2023-03-26T07:22:29.351Z,12128.00
2023-03-26T07:23:29.328Z,12268.00
2023-03-26T07:24:29.320Z,12852.00
2023-03-26T07:25:29.331Z,13480.00
2023-03-26T07:26:29.369Z,13124.00
2023-03-26T07:27:29.290Z,12548.00
2023-03-26T07:28:29.292Z,11372.00
2023-03-26T07:29:29.265Z,9776.00
2023-03-26T07:30:29.570Z,9980.00
2023-03-26T07:31:29.257Z,9732.00
2023-03-26T07:32:29.259Z,10816.00
2023-03-26T07:33:29.249Z,12172.00
2023-03-26T07:34:29.205Z,15496.00
2023-03-26T07:35:29.216Z,13556.00
2023-03-26T07:36:29.216Z,14948.00
2023-03-26T07:37:29.200Z,13288.00
2023-03-26T07:38:29.147Z,11440.00
2023-03-26T07:39:29.175Z,11720.00
2023-03-26T07:40:29.133Z,12152.00
2023-03-26T07:41:29.126Z,12228.00
2023-03-26T07:42:29.109Z,12388.00
2023-03-26T07:43:29.103Z,13828.00
2023-03-26T07:44:29.078Z,12232.00
2023-03-26T07:45:29.179Z,12964.00
2023-03-26T07:46:29.093Z,13956.00
2023-03-26T07:47:29.170Z,13136.00
2023-03-26T07:48:29.068Z,13448.00
2023-03-26T07:49:29.022Z,13824.00
2023-03-26T07:50:29.030Z,15348.00
2023-03-26T07:51:28.998Z,13000.00
2023-03-26T07:52:29.026Z,14524.00
2023-03-26T07:53:28.979Z,14160.00
2023-03-26T07:54:28.982Z,12772.00
2023-03-26T07:55:28.978Z,12320.00
2023-03-26T07:56:28.996Z,10100.00
2023-03-26T07:57:28.984Z,9204.00
2023-03-26T07:58:28.950Z,8252.00
2023-03-26T07:59:28.921Z,8380.00
2023-03-26T08:00:28.950Z,10012.00
2023-03-26T08:01:28.889Z,11876.00
2023-03-26T08:02:28.977Z,13336.00
2023-03-26T08:03:29.093Z,15528.00
2023-03-26T08:04:28.976Z,18272.00
2023-03-26T08:05:28.857Z,22112.00
2023-03-26T08:06:28.868Z,22784.00
2023-03-26T08:07:28.854Z,25056.00
2023-03-26T08:08:28.884Z,32160.00
2023-03-26T08:09:28.804Z,28896.00
2023-03-26T08:10:28.825Z,35072.00
2023-03-26T08:11:28.786Z,30912.00
2023-03-26T08:12:28.793Z,36192.00
2023-03-26T08:13:28.767Z,39264.00
2023-03-26T08:14:28.772Z,33792.00
2023-03-26T08:15:28.763Z,44128.00
2023-03-26T08:16:28.715Z,44896.00
2023-03-26T08:17:30.641Z,46624.00
2023-03-26T08:18:28.696Z,45568.00
2023-03-26T08:19:28.686Z,44288.00
2023-03-26T08:20:28.692Z,46560.00
2023-03-26T08:21:28.682Z,32288.00
2023-03-26T08:22:28.695Z,32128.00
2023-03-26T08:23:28.703Z,28256.00
2023-03-26T08:24:28.619Z,30272.00
2023-03-26T08:25:28.655Z,24736.00
2023-03-26T08:26:28.627Z,34400.00
2023-03-26T08:27:28.593Z,34272.00
2023-03-26T08:28:28.636Z,32544.00
2023-03-26T08:29:28.620Z,29696.00
2023-03-26T08:30:28.564Z,25568.00
2023-03-26T08:31:28.603Z,28096.00
2023-03-26T08:32:28.590Z,24640.00
2023-03-26T08:33:28.522Z,18784.00
2023-03-26T08:34:28.532Z,18688.00
2023-03-26T08:35:28.648Z,21024.00
2023-03-26T08:36:28.478Z,21728.00
2023-03-26T08:37:28.520Z,22720.00
2023-03-26T08:38:28.456Z,25056.00
2023-03-26T08:39:28.501Z,25440.00
2023-03-26T08:40:28.436Z,24864.00
2023-03-26T08:41:28.426Z,24832.00
2023-03-26T08:42:28.480Z,26144.00
2023-03-26T08:43:28.430Z,28704.00
2023-03-26T08:44:28.405Z,30816.00
2023-03-26T08:45:28.409Z,34016.00
2023-03-26T08:46:28.404Z,17536.00
2023-03-26T08:47:28.393Z,15664.00
2023-03-26T08:48:28.377Z,15284.00
2023-03-26T08:49:29.651Z,16896.00
2023-03-26T08:50:28.339Z,22176.00
2023-03-26T08:51:28.346Z,20000.00
2023-03-26T08:52:28.339Z,17504.00
2023-03-26T08:53:28.331Z,14648.00
2023-03-26T08:54:28.308Z,15088.00
2023-03-26T08:55:28.297Z,14972.00
2023-03-26T08:56:28.318Z,13788.00
2023-03-26T08:57:28.317Z,13000.00
2023-03-26T08:58:28.276Z,12484.00
2023-03-26T08:59:28.237Z,12436.00
2023-03-26T09:00:28.232Z,11992.00
2023-03-26T09:01:28.284Z,12188.00
2023-03-26T09:02:28.222Z,12440.00
2023-03-26T09:03:28.262Z,12524.00
2023-03-26T09:04:28.165Z,12860.00
2023-03-26T09:05:28.173Z,13284.00
2023-03-26T09:06:28.144Z,13428.00
2023-03-26T09:07:28.195Z,14172.00
2023-03-26T09:08:30.054Z,13984.00
2023-03-26T09:09:28.150Z,14544.00
2023-03-26T09:10:28.135Z,14880.00
2023-03-26T09:11:28.117Z,15448.00
2023-03-26T09:12:28.122Z,17152.00
2023-03-26T09:13:28.063Z,15956.00
2023-03-26T09:14:28.083Z,16736.00
2023-03-26T09:15:28.085Z,15332.00
2023-03-26T09:16:28.121Z,15388.00
2023-03-26T09:17:28.086Z,16008.00
2023-03-26T09:18:28.018Z,15996.00
2023-03-26T09:19:28.030Z,15796.00
2023-03-26T09:20:28.040Z,15576.00
2023-03-26T09:21:28.001Z,14828.00
2023-03-26T09:22:28.004Z,14300.00
2023-03-26T09:23:27.992Z,13908.00
2023-03-26T09:24:27.960Z,13828.00
2023-03-26T09:25:27.952Z,13640.00
2023-03-26T09:26:27.999Z,13308.00
2023-03-26T09:27:27.929Z,12856.00
2023-03-26T09:28:27.935Z,12552.00
2023-03-26T09:29:27.887Z,12352.00
2023-03-26T09:30:27.901Z,12248.00
2023-03-26T09:31:27.937Z,12172.00
2023-03-26T09:32:27.947Z,12344.00
2023-03-26T09:33:27.855Z,12628.00
2023-03-26T09:34:27.843Z,13080.00
2023-03-26T09:35:27.900Z,13480.00
2023-03-26T09:36:27.852Z,13688.00
2023-03-26T09:37:27.800Z,13464.00
2023-03-26T09:38:27.850Z,13044.00
2023-03-26T09:39:27.801Z,12408.00
2023-03-26T09:40:27.760Z,11748.00
2023-03-26T09:41:27.812Z,11196.00
2023-03-26T09:42:27.793Z,10856.00
2023-03-26T09:43:27.727Z,10608.00
2023-03-26T09:44:27.768Z,10496.00
2023-03-26T09:45:27.739Z,10576.00
2023-03-26T09:46:27.746Z,10960.00
2023-03-26T09:47:27.732Z,11648.00
2023-03-26T09:48:27.668Z,12440.00
2023-03-26T09:49:27.687Z,13424.00
2023-03-26T09:50:27.680Z,14340.00
2023-03-26T09:51:27.802Z,15112.00
2023-03-26T09:52:27.684Z,15696.00
2023-03-26T09:53:27.645Z,16288.00
2023-03-26T09:54:27.609Z,17248.00
2023-03-26T09:55:27.609Z,18912.00
2023-03-26T09:56:27.618Z,20704.00
2023-03-26T09:57:27.660Z,22336.00
2023-03-26T09:58:27.582Z,20064.00
2023-03-26T09:59:27.588Z,20032.00
2023-03-26T10:00:27.534Z,20224.00
2023-03-26T10:01:27.654Z,21632.00
2023-03-26T10:02:47.089Z,21216.00
2023-03-26T10:03:28.598Z,21216.00
2023-03-26T10:04:27.607Z,20672.00
2023-03-26T10:05:27.481Z,20032.00
2023-03-26T10:06:27.477Z,19904.00
2023-03-26T10:07:27.478Z,20128.00
2023-03-26T10:08:27.949Z,19488.00
2023-03-26T10:09:27.493Z,19168.00
2023-03-26T10:10:27.428Z,19584.00
2023-03-26T10:11:27.421Z,20512.00
2023-03-26T10:12:27.407Z,20896.00
2023-03-26T10:13:27.442Z,18432.00
2023-03-26T10:14:27.421Z,19616.00
2023-03-26T10:15:27.385Z,19616.00
2023-03-26T10:16:27.402Z,19424.00
2023-03-26T10:17:27.374Z,24608.00
2023-03-26T10:18:30.166Z,24064.00
2023-03-26T10:19:27.591Z,20256.00
2023-03-26T10:20:27.326Z,19936.00
2023-03-26T10:21:28.501Z,19616.00
2023-03-26T10:22:27.318Z,19296.00
2023-03-26T10:23:27.304Z,19040.00
2023-03-26T10:24:27.343Z,19584.00
2023-03-26T10:25:27.302Z,19264.00
2023-03-26T10:26:27.264Z,16704.00
2023-03-26T10:27:27.312Z,15708.00
2023-03-26T10:28:27.237Z,14896.00
2023-03-26T10:29:27.241Z,14384.00
2023-03-26T10:30:27.293Z,14000.00
2023-03-26T10:31:27.324Z,13888.00
2023-03-26T10:32:27.213Z,13444.00
2023-03-26T10:33:27.157Z,13220.00
2023-03-26T10:34:29.310Z,12916.00
2023-03-26T10:35:27.300Z,12640.00
2023-03-26T10:36:27.130Z,12632.00
2023-03-26T10:37:27.130Z,12544.00
2023-03-26T10:38:27.135Z,12296.00
2023-03-26T10:39:38.385Z,12384.00
2023-03-26T10:40:28.114Z,12900.00
2023-03-26T10:41:27.054Z,13484.00
2023-03-26T10:42:27.062Z,13600.00
2023-03-26T10:43:27.068Z,13612.00
2023-03-26T10:44:27.046Z,13632.00
2023-03-26T10:45:27.068Z,13512.00
2023-03-26T10:46:27.033Z,13188.00
2023-03-26T10:47:27.077Z,12668.00
2023-03-26T10:48:27.042Z,12264.00
2023-03-26T10:49:27.021Z,12208.00
2023-03-26T10:50:26.960Z,12076.00
2023-03-26T10:51:26.975Z,12064.00
2023-03-26T10:52:26.957Z,12028.00
2023-03-26T10:53:26.978Z,11808.00
2023-03-26T10:54:26.954Z,11524.00
2023-03-26T10:55:26.908Z,11180.00
2023-03-26T10:56:26.903Z,10852.00
2023-03-26T10:57:26.898Z,10596.00
2023-03-26T10:58:26.880Z,10520.00
2023-03-26T10:59:27.086Z,10612.00
2023-03-26T11:00:26.929Z,10688.00
2023-03-26T11:01:26.883Z,10344.00
2023-03-26T11:02:30.460Z,9356.00
2023-03-26T11:03:26.810Z,8100.00
2023-03-26T11:04:26.808Z,7264.00
2023-03-26T11:05:26.946Z,6940.00
2023-03-26T11:06:26.835Z,7228.00
2023-03-26T11:07:26.845Z,7688.00
2023-03-26T11:08:31.610Z,7928.00
2023-03-26T11:09:27.769Z,7960.00
2023-03-26T11:10:26.737Z,7928.00
2023-03-26T11:11:26.760Z,7892.00
2023-03-26T11:12:28.140Z,7848.00
2023-03-26T11:13:26.723Z,7736.00
2023-03-26T11:14:34.416Z,7532.00
2023-03-26T11:15:27.776Z,7356.00
2023-03-26T11:16:26.693Z,7264.00
2023-03-26T11:17:40.582Z,7296.00
2023-03-26T11:18:27.760Z,7440.00
2023-03-26T11:19:26.663Z,7512.00
2023-03-26T11:20:26.664Z,7580.00
2023-03-26T11:21:26.660Z,7552.00
2023-03-26T11:22:26.632Z,7524.00
2023-03-26T11:23:26.621Z,7500.00
2023-03-26T11:24:26.618Z,7544.00
2023-03-26T11:25:26.617Z,7632.00
2023-03-26T11:26:26.601Z,7712.00
2023-03-26T11:27:26.655Z,7788.00
2023-03-26T11:28:26.622Z,7856.00
2023-03-26T11:29:32.670Z,7920.00
2023-03-26T11:30:27.544Z,7964.00
2023-03-26T11:31:26.554Z,7900.00
2023-03-26T11:32:26.515Z,7796.00
2023-03-26T11:33:26.542Z,7716.00
2023-03-26T11:34:27.544Z,7580.00
2023-03-26T11:35:39.528Z,7460.00
2023-03-26T11:36:27.496Z,7396.00
2023-03-26T11:37:26.467Z,7368.00
2023-03-26T11:38:26.453Z,7480.00
2023-03-26T11:39:26.451Z,7676.00
2023-03-26T11:40:26.457Z,7756.00
2023-03-26T11:41:26.387Z,7668.00
2023-03-26T11:42:26.409Z,7504.00
2023-03-26T11:43:26.378Z,7260.00
2023-03-26T11:44:26.410Z,7044.00
2023-03-26T11:45:26.404Z,6920.00
2023-03-26T11:46:26.388Z,6872.00
2023-03-26T11:47:26.360Z,6864.00
2023-03-26T11:48:26.301Z,6820.00
2023-03-26T11:49:26.318Z,6820.00
2023-03-26T11:50:26.371Z,6692.00
2023-03-26T11:51:26.296Z,6408.00
2023-03-26T11:52:26.317Z,6144.00
2023-03-26T11:53:26.309Z,5980.00
2023-03-26T11:54:26.254Z,5676.00
2023-03-26T11:55:26.257Z,5384.00
2023-03-26T11:56:26.292Z,5312.00
2023-03-26T11:57:26.234Z,5308.00
2023-03-26T11:58:26.257Z,5304.00
2023-03-26T11:59:26.174Z,5384.00
2023-03-26T12:00:26.222Z,5436.00
2023-03-26T12:01:26.184Z,5320.00
2023-03-26T12:02:26.320Z,4964.00
2023-03-26T12:03:26.138Z,4524.00
2023-03-26T12:04:26.152Z,4168.00
2023-03-26T12:05:26.144Z,4072.00
2023-03-26T12:06:27.282Z,4408.00
2023-03-26T12:07:26.102Z,4912.00
2023-03-26T12:08:26.152Z,5036.00
2023-03-26T12:09:26.074Z,4780.00
2023-03-26T12:10:26.091Z,4440.00
2023-03-26T12:11:26.061Z,4444.00
2023-03-26T12:12:26.058Z,4836.00
2023-03-26T12:13:26.047Z,5304.00
2023-03-26T12:14:26.007Z,5652.00
2023-03-26T12:15:26.011Z,5824.00
2023-03-26T12:16:26.027Z,5856.00
2023-03-26T12:17:31.562Z,5824.00
2023-03-26T12:18:27.020Z,5888.00
2023-03-26T12:19:25.971Z,6072.00
2023-03-26T12:20:26.002Z,6304.00
2023-03-26T12:21:25.951Z,6476.00
2023-03-26T12:22:25.908Z,6564.00
2023-03-26T12:23:25.996Z,6596.00
2023-03-26T12:24:25.906Z,6568.00
2023-03-26T12:25:25.914Z,6484.00
2023-03-26T12:26:25.902Z,6380.00
2023-03-26T12:27:25.855Z,6260.00